Time;durP1;ratioP1;P1;durP2;ratioP2;P2;SDS_P1;SDS_P2;PMS_P1;PMS_P2;Temp;Humidity;BMP_temperature;BMP_pressure;BME280_temperature;BME280_humidity;BME280_pressure;Samples;Min_cycle;Max_cycle;Signal;HPM_P1;HPM_P2
2023/08/22 00:01:33;;;;;;;3.67;3.37;;;;;;;;;;4987273;28;20712;-58
2023/08/22 00:03:59;;;;;;;3.53;3.23;;;;;;;;;;5008579;28;20266;-58
2023/08/22 00:06:25;;;;;;;3.40;3.10;;;;;;;;;;5005792;28;20200;-58
2023/08/22 00:08:51;;;;;;;3.67;3.37;;;;;;;;;;5005056;28;20191;-58
2023/08/22 00:11:18;;;;;;;3.47;3.17;;;;;;;;;;5005945;28;20648;-58
2023/08/22 00:13:44;;;;;;;3.20;2.90;;;;;;;;;;5007543;28;20189;-58
2023/08/22 00:16:10;;;;;;;3.40;3.13;;;;;;;;;;5005706;28;20176;-58
2023/08/22 00:18:40;;;;;;;3.87;3.07;;;;;;;;;;5007166;28;20188;-58
2023/08/22 00:21:06;;;;;;;3.63;3.33;;;;;;;;;;5006592;28;20180;-58
2023/08/22 00:23:32;;;;;;;3.87;3.43;;;;;;;;;;5005196;28;20193;-58
2023/08/22 00:25:58;;;;;;;5.53;3.87;;;;;;;;;;5006855;28;20628;-58
2023/08/22 00:28:24;;;;;;;3.70;3.40;;;;;;;;;;5007918;28;20417;-58
2023/08/22 00:30:52;;;;;;;3.87;3.50;;;;;;;;;;5006803;28;20178;-58
2023/08/22 00:33:19;;;;;;;4.67;3.70;;;;;;;;;;4989936;28;20181;-58
2023/08/22 00:35:45;;;;;;;5.47;3.53;;;;;;;;;;5005738;28;20203;-58
2023/08/22 00:38:11;;;;;;;4.10;3.57;;;;;;;;;;5005939;28;20179;-58
2023/08/22 00:40:38;;;;;;;3.23;2.97;;;;;;;;;;4986168;28;20265;-58
2023/08/22 00:43:04;;;;;;;3.60;3.17;;;;;;;;;;5007223;28;20185;-58
2023/08/22 00:45:33;;;;;;;3.40;3.10;;;;;;;;;;5006911;28;20195;-58
2023/08/22 00:48:00;;;;;;;3.83;3.17;;;;;;;;;;5006943;28;20213;-58
2023/08/22 00:50:26;;;;;;;4.13;2.90;;;;;;;;;;5007342;28;20273;-58
2023/08/22 00:52:52;;;;;;;3.73;3.43;;;;;;;;;;5006581;28;20195;-58
2023/08/22 00:55:19;;;;;;;3.80;3.40;;;;;;;;;;5005772;28;20178;-58
2023/08/22 00:57:45;;;;;;;6.07;3.70;;;;;;;;;;5005747;28;20182;-58
2023/08/22 01:00:11;;;;;;;3.97;3.57;;;;;;;;;;5007413;28;20182;-59
2023/08/22 01:02:40;;;;;;;3.73;3.43;;;;;;;;;;5001401;28;20310;-58
2023/08/22 01:05:07;;;;;;;3.60;3.30;;;;;;;;;;4996773;28;20210;-58
2023/08/22 01:07:53;;;;;;;3.77;3.47;;;;;;;;;;5005302;28;20170;-58
2023/08/22 01:10:25;;;;;;;4.07;2.93;;;;;;;;;;5002847;28;20182;-56
2023/08/22 01:12:54;;;;;;;4.33;3.07;;;;;;;;;;5004241;28;20273;-55
2023/08/22 01:15:24;;;;;;;4.30;3.30;;;;;;;;;;5007131;28;20359;-56
2023/08/22 01:17:51;;;;;;;3.83;3.40;;;;;;;;;;5001039;28;20190;-56
2023/08/22 01:20:17;;;;;;;3.60;3.03;;;;;;;;;;5007178;28;20178;-58
2023/08/22 01:22:44;;;;;;;3.87;3.50;;;;;;;;;;5004797;28;20187;-58
2023/08/22 01:25:10;;;;;;;3.50;3.20;;;;;;;;;;5006592;28;20234;-58
2023/08/22 01:27:39;;;;;;;4.13;3.70;;;;;;;;;;5004912;28;20202;-58
2023/08/22 01:30:11;;;;;;;3.77;3.47;;;;;;;;;;4999705;28;20175;-58
2023/08/22 01:32:40;;;;;;;3.57;3.33;;;;;;;;;;5007106;28;20221;-59
2023/08/22 01:35:07;;;;;;;3.47;3.13;;;;;;;;;;4996932;28;20206;-58
2023/08/22 01:37:35;;;;;;;3.50;3.20;;;;;;;;;;5003178;28;20178;-58
2023/08/22 01:40:04;;;;;;;2.87;2.63;;;;;;;;;;5006688;28;20539;-58
2023/08/22 01:42:31;;;;;;;3.57;3.27;;;;;;;;;;5005063;28;20345;-58
2023/08/22 01:44:57;;;;;;;3.77;2.73;;;;;;;;;;5006626;28;20561;-58
2023/08/22 01:47:23;;;;;;;3.70;3.40;;;;;;;;;;5004222;28;20171;-58
2023/08/22 01:49:49;;;;;;;3.43;3.10;;;;;;;;;;5004806;28;20932;-58
2023/08/22 01:52:15;;;;;;;3.50;3.20;;;;;;;;;;5005313;28;20657;-58
2023/08/22 01:54:41;;;;;;;4.33;3.47;;;;;;;;;;5006271;28;20190;-58
2023/08/22 01:57:07;;;;;;;5.17;3.63;;;;;;;;;;5004347;28;20437;-58
2023/08/22 01:59:34;;;;;;;3.73;3.33;;;;;;;;;;5005330;28;20844;-58
2023/08/22 02:02:00;;;;;;;4.63;3.57;;;;;;;;;;5009899;28;20619;-58
2023/08/22 02:04:27;;;;;;;4.27;3.23;;;;;;;;;;5010363;28;20211;-58
2023/08/22 02:06:53;;;;;;;4.57;3.37;;;;;;;;;;5011170;28;20178;-57
2023/08/22 02:09:19;;;;;;;3.70;3.27;;;;;;;;;;4992175;28;20313;-57
2023/08/22 02:11:45;;;;;;;3.37;3.07;;;;;;;;;;5010408;28;20178;-57
2023/08/22 02:14:11;;;;;;;3.97;3.10;;;;;;;;;;5010917;28;20189;-58
2023/08/22 02:16:38;;;;;;;3.20;2.70;;;;;;;;;;5007457;28;20175;-58
2023/08/22 02:19:05;;;;;;;3.53;3.23;;;;;;;;;;5006353;28;20255;-58
2023/08/22 02:21:31;;;;;;;4.23;3.60;;;;;;;;;;5009491;28;20672;-58
2023/08/22 02:23:57;;;;;;;4.53;3.50;;;;;;;;;;5008662;28;20198;-58
2023/08/22 02:26:26;;;;;;;3.67;3.30;;;;;;;;;;5007360;28;20870;-57
2023/08/22 02:28:55;;;;;;;4.77;3.33;;;;;;;;;;5009455;28;20277;-57
2023/08/22 02:31:21;;;;;;;3.80;3.50;;;;;;;;;;5009289;28;20192;-56
2023/08/22 02:33:47;;;;;;;4.00;3.60;;;;;;;;;;5006421;28;20178;-57
2023/08/22 02:36:13;;;;;;;4.07;3.10;;;;;;;;;;5006369;28;20174;-56
2023/08/22 02:38:41;;;;;;;3.83;3.50;;;;;;;;;;5007980;28;20179;-57
2023/08/22 02:41:07;;;;;;;3.70;3.10;;;;;;;;;;5010475;28;20174;-56
2023/08/22 02:43:33;;;;;;;3.50;3.20;;;;;;;;;;5008856;28;20579;-56
2023/08/22 02:45:59;;;;;;;3.43;3.10;;;;;;;;;;5004169;28;20177;-55
2023/08/22 02:48:25;;;;;;;4.70;3.50;;;;;;;;;;5004991;28;20214;-56
2023/08/22 02:50:52;;;;;;;3.83;2.87;;;;;;;;;;5008259;28;20226;-56
2023/08/22 02:53:18;;;;;;;3.47;3.17;;;;;;;;;;5008869;28;20185;-56
2023/08/22 02:55:47;;;;;;;4.33;2.90;;;;;;;;;;5006204;28;20575;-56
2023/08/22 02:58:13;;;;;;;4.17;3.77;;;;;;;;;;5008110;28;20645;-57
2023/08/22 03:00:39;;;;;;;4.00;3.70;;;;;;;;;;5008916;28;20571;-56
2023/08/22 03:03:06;;;;;;;3.93;3.60;;;;;;;;;;5002680;28;20264;-56
2023/08/22 03:05:32;;;;;;;4.20;3.37;;;;;;;;;;5009968;28;20598;-55
2023/08/22 03:07:58;;;;;;;4.67;3.27;;;;;;;;;;5005783;28;20175;-56
2023/08/22 03:10:24;;;;;;;3.40;3.10;;;;;;;;;;5004452;28;20189;-55
2023/08/22 03:12:50;;;;;;;3.77;3.47;;;;;;;;;;4991017;28;20186;-55
2023/08/22 03:15:17;;;;;;;3.57;3.27;;;;;;;;;;5007853;28;20186;-56
2023/08/22 03:17:43;;;;;;;4.07;3.40;;;;;;;;;;5003936;28;20191;-56
2023/08/22 03:20:09;;;;;;;3.67;3.37;;;;;;;;;;5008570;28;20707;-56
2023/08/22 03:22:35;;;;;;;6.20;3.37;;;;;;;;;;5008593;28;20247;-56
2023/08/22 03:25:02;;;;;;;3.60;3.30;;;;;;;;;;5007846;28;20238;-55
2023/08/22 03:27:28;;;;;;;3.30;3.00;;;;;;;;;;5006171;28;20178;-57
2023/08/22 03:29:54;;;;;;;4.33;3.67;;;;;;;;;;5008755;28;20181;-55
2023/08/22 03:32:20;;;;;;;3.20;2.90;;;;;;;;;;5009057;28;20210;-55
2023/08/22 03:34:46;;;;;;;3.57;3.27;;;;;;;;;;5005243;28;20189;-56
2023/08/22 03:37:12;;;;;;;3.13;2.93;;;;;;;;;;5007882;28;20419;-56
2023/08/22 03:39:39;;;;;;;3.73;3.37;;;;;;;;;;5007776;28;20197;-59
2023/08/22 03:42:05;;;;;;;3.53;3.23;;;;;;;;;;5007277;28;20180;-59
2023/08/22 03:44:31;;;;;;;3.83;3.20;;;;;;;;;;5007659;28;20200;-58
2023/08/22 03:46:58;;;;;;;3.97;3.67;;;;;;;;;;5007610;28;20193;-59
2023/08/22 03:49:24;;;;;;;3.60;3.30;;;;;;;;;;5006595;28;20250;-59
2023/08/22 03:51:50;;;;;;;3.20;2.87;;;;;;;;;;5005377;28;20309;-59
2023/08/22 03:54:16;;;;;;;3.50;3.20;;;;;;;;;;5006030;28;20220;-59
2023/08/22 03:56:43;;;;;;;3.70;3.40;;;;;;;;;;5005708;28;20193;-60
2023/08/22 03:59:09;;;;;;;3.07;2.80;;;;;;;;;;5006369;28;20186;-59
2023/08/22 04:01:35;;;;;;;3.30;3.00;;;;;;;;;;5004901;28;20288;-59
2023/08/22 04:04:01;;;;;;;5.40;3.10;;;;;;;;;;5003226;28;20206;-59
2023/08/22 04:06:28;;;;;;;3.03;2.83;;;;;;;;;;5005383;28;20179;-59
2023/08/22 04:08:54;;;;;;;3.20;2.90;;;;;;;;;;5002870;28;20546;-59
2023/08/22 04:11:23;;;;;;;4.20;3.03;;;;;;;;;;5003235;28;20182;-59
2023/08/22 04:13:50;;;;;;;5.27;2.87;;;;;;;;;;5002344;28;20236;-59
2023/08/22 04:16:16;;;;;;;4.27;3.33;;;;;;;;;;5004624;28;20682;-59
2023/08/22 04:18:43;;;;;;;4.00;3.30;;;;;;;;;;4982965;28;20183;-59
2023/08/22 04:21:09;;;;;;;3.50;3.20;;;;;;;;;;4990775;28;20189;-59
2023/08/22 04:23:36;;;;;;;4.10;3.10;;;;;;;;;;4998260;28;20285;-59
2023/08/22 04:26:02;;;;;;;4.07;2.73;;;;;;;;;;5007704;28;20181;-59
2023/08/22 04:28:29;;;;;;;3.33;3.03;;;;;;;;;;5007257;28;20232;-60
2023/08/22 04:30:59;;;;;;;3.50;3.20;;;;;;;;;;5006218;28;20768;-59
2023/08/22 04:33:26;;;;;;;3.20;3.00;;;;;;;;;;5003155;28;20180;-59
2023/08/22 04:35:52;;;;;;;4.20;2.97;;;;;;;;;;4988465;28;20548;-59
2023/08/22 04:38:21;;;;;;;4.10;3.20;;;;;;;;;;5006649;28;20185;-58
2023/08/22 04:40:47;;;;;;;3.57;3.27;;;;;;;;;;4999363;28;20243;-59
2023/08/22 04:43:13;;;;;;;3.60;3.30;;;;;;;;;;5004364;28;20752;-59
2023/08/22 04:45:39;;;;;;;4.30;3.47;;;;;;;;;;5008649;28;20237;-60
2023/08/22 04:48:07;;;;;;;4.03;3.17;;;;;;;;;;4989534;28;20173;-59
2023/08/22 04:50:33;;;;;;;3.43;3.13;;;;;;;;;;5006426;28;20274;-58
2023/08/22 04:53:00;;;;;;;3.90;3.60;;;;;;;;;;5002178;28;20188;-60
2023/08/22 04:55:27;;;;;;;3.33;3.03;;;;;;;;;;5003595;28;20671;-60
2023/08/22 04:57:53;;;;;;;4.10;3.20;;;;;;;;;;5002622;28;20582;-58
2023/08/22 05:00:19;;;;;;;3.17;2.97;;;;;;;;;;5001093;28;20639;-59
2023/08/22 05:02:46;;;;;;;4.03;3.00;;;;;;;;;;5005367;28;20298;-59
2023/08/22 05:05:12;;;;;;;3.67;3.20;;;;;;;;;;4994305;28;20293;-60
2023/08/22 05:07:39;;;;;;;3.70;3.40;;;;;;;;;;5006267;28;20723;-59
2023/08/22 05:10:05;;;;;;;3.33;3.03;;;;;;;;;;5001080;28;20176;-59
2023/08/22 05:12:31;;;;;;;3.30;2.97;;;;;;;;;;5006132;28;20263;-59
2023/08/22 05:14:58;;;;;;;4.77;3.47;;;;;;;;;;5006558;28;20197;-60
2023/08/22 05:17:24;;;;;;;3.33;3.03;;;;;;;;;;5006001;28;20182;-60
2023/08/22 05:19:50;;;;;;;4.00;3.10;;;;;;;;;;5004008;28;20220;-59
2023/08/22 05:22:16;;;;;;;3.53;3.23;;;;;;;;;;5006436;28;20195;-59
2023/08/22 05:24:43;;;;;;;3.60;3.10;;;;;;;;;;5001685;28;20261;-59
2023/08/22 05:27:09;;;;;;;4.17;3.40;;;;;;;;;;4996158;28;20544;-59
2023/08/22 05:29:35;;;;;;;3.47;3.17;;;;;;;;;;5006864;28;20576;-58
2023/08/22 05:32:02;;;;;;;4.27;3.87;;;;;;;;;;5000218;28;20219;-57
2023/08/22 05:34:29;;;;;;;4.10;3.70;;;;;;;;;;4997097;28;20184;-58
2023/08/22 05:36:55;;;;;;;7.37;4.93;;;;;;;;;;5000123;28;20184;-57
2023/08/22 05:39:21;;;;;;;4.50;3.97;;;;;;;;;;5006290;28;20237;-59
2023/08/22 05:41:47;;;;;;;6.27;4.03;;;;;;;;;;5001453;28;20192;-58
2023/08/22 05:44:14;;;;;;;4.30;4.00;;;;;;;;;;5004920;28;20203;-58
2023/08/22 05:46:41;;;;;;;7.53;5.00;;;;;;;;;;5005628;28;20236;-58
2023/08/22 05:49:07;;;;;;;4.27;3.87;;;;;;;;;;5005501;28;20197;-59
2023/08/22 05:51:33;;;;;;;5.10;4.30;;;;;;;;;;5005067;28;20229;-58
2023/08/22 05:53:59;;;;;;;6.00;4.73;;;;;;;;;;5003125;28;20197;-58
2023/08/22 05:56:26;;;;;;;5.10;4.53;;;;;;;;;;5001807;28;20183;-58
2023/08/22 05:58:52;;;;;;;7.50;4.53;;;;;;;;;;5002597;28;20198;-59
2023/08/22 06:01:18;;;;;;;5.30;4.80;;;;;;;;;;4999847;28;20206;-59
2023/08/22 06:03:45;;;;;;;7.97;4.50;;;;;;;;;;5002347;28;20210;-59
2023/08/22 06:06:11;;;;;;;6.00;5.40;;;;;;;;;;5006455;28;20291;-58
2023/08/22 06:08:38;;;;;;;6.23;5.03;;;;;;;;;;5005274;28;20646;-58
2023/08/22 06:11:04;;;;;;;7.33;5.37;;;;;;;;;;5001216;28;20207;-57
2023/08/22 06:13:30;;;;;;;7.13;5.53;;;;;;;;;;4998108;28;20551;-57
2023/08/22 06:15:57;;;;;;;8.67;5.80;;;;;;;;;;5002361;28;20190;-58
2023/08/22 06:18:23;;;;;;;7.30;6.03;;;;;;;;;;4999786;28;20642;-58
2023/08/22 06:20:50;;;;;;;6.57;5.53;;;;;;;;;;4995021;28;20286;-58
2023/08/22 06:23:16;;;;;;;8.23;6.50;;;;;;;;;;4983388;28;20186;-59
2023/08/22 06:25:43;;;;;;;6.17;5.63;;;;;;;;;;4999789;28;20223;-58
2023/08/22 06:28:09;;;;;;;8.83;6.30;;;;;;;;;;4997346;28;20175;-58
2023/08/22 06:30:36;;;;;;;7.80;7.00;;;;;;;;;;5003731;28;20186;-59
2023/08/22 06:33:02;;;;;;;7.07;6.43;;;;;;;;;;4990558;28;20176;-59
2023/08/22 06:35:28;;;;;;;8.83;6.23;;;;;;;;;;4997833;28;20214;-59
2023/08/22 06:37:55;;;;;;;8.37;7.57;;;;;;;;;;5005891;28;20581;-59
2023/08/22 06:40:22;;;;;;;9.77;8.83;;;;;;;;;;5004535;28;20191;-59
2023/08/22 06:42:49;;;;;;;11.07;8.23;;;;;;;;;;5000913;28;20290;-59
2023/08/22 06:45:15;;;;;;;8.33;7.53;;;;;;;;;;5002808;28;20418;-58
2023/08/22 06:47:42;;;;;;;7.70;7.10;;;;;;;;;;5006082;28;20205;-58
2023/08/22 06:50:08;;;;;;;14.73;7.47;;;;;;;;;;4978061;28;20278;-58
2023/08/22 06:52:34;;;;;;;8.07;7.17;;;;;;;;;;4987374;28;20185;-58
2023/08/22 06:55:01;;;;;;;10.67;8.43;;;;;;;;;;4983560;28;20654;-59
2023/08/22 06:57:27;;;;;;;9.97;9.00;;;;;;;;;;4989029;28;20193;-59
2023/08/22 06:59:53;;;;;;;8.00;7.20;;;;;;;;;;4982981;28;20597;-58
2023/08/22 07:02:20;;;;;;;7.53;6.63;;;;;;;;;;4988502;28;20209;-59
2023/08/22 07:04:46;;;;;;;7.03;5.60;;;;;;;;;;4980458;28;20205;-58
2023/08/22 07:07:12;;;;;;;7.77;6.97;;;;;;;;;;4989404;28;20196;-59
2023/08/22 07:09:38;;;;;;;9.40;7.60;;;;;;;;;;4985403;28;20513;-55
2023/08/22 07:12:04;;;;;;;11.57;7.67;;;;;;;;;;4986949;28;20414;-53
2023/08/22 07:14:31;;;;;;;8.37;7.03;;;;;;;;;;4988896;28;20183;-53
2023/08/22 07:16:57;;;;;;;9.63;7.07;;;;;;;;;;4988483;28;20233;-53
2023/08/22 07:19:23;;;;;;;8.57;7.70;;;;;;;;;;4989836;28;20198;-53
2023/08/22 07:21:50;;;;;;;8.17;6.00;;;;;;;;;;4987391;28;20291;-55
2023/08/22 07:24:16;;;;;;;10.90;8.23;;;;;;;;;;4988290;28;20290;-55
2023/08/22 07:26:42;;;;;;;9.87;6.80;;;;;;;;;;4983877;28;20183;-55
2023/08/22 07:29:09;;;;;;;9.37;7.27;;;;;;;;;;4987865;28;20712;-55
2023/08/22 07:31:35;;;;;;;11.83;6.67;;;;;;;;;;4985598;28;20183;-55
2023/08/22 07:34:02;;;;;;;8.13;6.53;;;;;;;;;;4983767;28;20649;-54
2023/08/22 07:36:29;;;;;;;12.43;8.60;;;;;;;;;;4984272;28;20180;-55
2023/08/22 07:38:59;;;;;;;9.93;7.63;;;;;;;;;;4988664;28;20234;-56
2023/08/22 07:41:25;;;;;;;11.33;8.83;;;;;;;;;;4986501;28;20194;-55
2023/08/22 07:43:52;;;;;;;9.50;8.57;;;;;;;;;;4988405;28;20176;-54
2023/08/22 07:46:19;;;;;;;13.13;7.97;;;;;;;;;;4989554;28;20200;-55
2023/08/22 07:48:45;;;;;;;8.87;7.97;;;;;;;;;;4988745;28;20187;-55
2023/08/22 07:51:12;;;;;;;9.50;7.23;;;;;;;;;;4999669;28;20985;-56
2023/08/22 07:53:38;;;;;;;11.30;9.33;;;;;;;;;;5006968;28;20707;-55
2023/08/22 07:56:06;;;;;;;10.23;8.87;;;;;;;;;;5006395;28;20171;-54
2023/08/22 07:58:32;;;;;;;11.60;8.80;;;;;;;;;;5007849;28;20261;-54
2023/08/22 08:00:58;;;;;;;16.03;8.90;;;;;;;;;;5007942;28;20186;-54
2023/08/22 08:03:24;;;;;;;13.27;8.03;;;;;;;;;;5002291;28;20190;-56
2023/08/22 08:05:50;;;;;;;8.30;7.27;;;;;;;;;;4998751;28;20214;-55
2023/08/22 08:08:16;;;;;;;11.87;7.40;;;;;;;;;;5004256;28;20187;-54
2023/08/22 08:10:43;;;;;;;13.23;7.23;;;;;;;;;;5006785;28;20281;-54
2023/08/22 08:13:09;;;;;;;15.90;8.03;;;;;;;;;;5007545;28;20185;-55
2023/08/22 08:15:36;;;;;;;14.17;8.77;;;;;;;;;;4990305;28;20191;-55
2023/08/22 08:18:03;;;;;;;14.57;8.47;;;;;;;;;;4987354;28;20184;-55
2023/08/22 08:20:29;;;;;;;11.63;8.83;;;;;;;;;;5003702;28;20187;-54
2023/08/22 08:22:56;;;;;;;13.27;8.53;;;;;;;;;;4988412;28;20179;-54
2023/08/22 08:25:22;;;;;;;11.43;8.37;;;;;;;;;;5000742;28;20646;-54
2023/08/22 08:27:48;;;;;;;10.77;7.90;;;;;;;;;;5003701;28;20689;-54
2023/08/22 08:30:15;;;;;;;16.03;8.43;;;;;;;;;;5008647;28;20231;-54
2023/08/22 08:32:41;;;;;;;11.83;7.83;;;;;;;;;;5008024;28;20189;-55
2023/08/22 08:35:07;;;;;;;11.17;7.23;;;;;;;;;;5007229;28;20228;-55
2023/08/22 08:37:33;;;;;;;10.73;6.20;;;;;;;;;;5006238;28;20666;-55
2023/08/22 08:40:00;;;;;;;10.73;6.90;;;;;;;;;;5007534;28;20194;-58
2023/08/22 08:42:26;;;;;;;9.57;6.00;;;;;;;;;;5005670;28;20181;-57
2023/08/22 08:44:52;;;;;;;8.70;5.87;;;;;;;;;;5006097;28;20695;-58
2023/08/22 08:47:18;;;;;;;9.37;6.33;;;;;;;;;;5006922;28;20206;-58
2023/08/22 08:49:44;;;;;;;8.90;5.53;;;;;;;;;;5006460;28;20218;-54
2023/08/22 08:52:12;;;;;;;9.83;6.70;;;;;;;;;;5007051;28;20190;-54
2023/08/22 08:54:38;;;;;;;8.57;5.70;;;;;;;;;;5005063;28;20727;-55
2023/08/22 08:57:04;;;;;;;8.07;5.90;;;;;;;;;;5005445;28;20544;-54
2023/08/22 08:59:30;;;;;;;7.10;6.00;;;;;;;;;;5008222;28;20184;-63
2023/08/22 09:01:57;;;;;;;13.63;6.53;;;;;;;;;;5002632;28;20208;-60
2023/08/22 09:04:23;;;;;;;8.57;5.63;;;;;;;;;;5006389;28;20216;-58
2023/08/22 09:06:49;;;;;;;9.77;4.73;;;;;;;;;;5002800;28;20596;-59
2023/08/22 09:09:17;;;;;;;11.20;5.43;;;;;;;;;;5006859;28;20220;-58
2023/08/22 09:11:46;;;;;;;9.43;4.93;;;;;;;;;;5007592;28;20178;-58
2023/08/22 10:30:27;;;;;;;4.00;3.30;;;;;;;;;;5062886;27;2110995;-83
2023/08/22 10:33:03;;;;;;;5.87;3.40;;;;;;;;;;5131042;28;20473;-82
2023/08/22 10:35:31;;;;;;;5.30;3.80;;;;;;;;;;5117903;28;20581;-84
2023/08/22 10:38:00;;;;;;;5.37;3.90;;;;;;;;;;5130311;28;20180;-81
2023/08/22 10:40:26;;;;;;;9.57;4.40;;;;;;;;;;5133241;28;20185;-82
2023/08/22 10:43:03;;;;;;;5.97;2.77;;;;;;;;;;5134149;28;20178;-82
2023/08/22 10:45:37;;;;;;;4.83;3.43;;;;;;;;;;5125530;28;20639;-82
2023/08/22 10:48:11;;;;;;;5.57;4.03;;;;;;;;;;5094687;28;20185;-83
2023/08/22 10:50:40;;;;;;;6.47;3.57;;;;;;;;;;5122939;28;20177;-83
2023/08/22 10:53:32;;;;;;;4.10;3.20;;;;;;;;;;5139680;28;20182;-85
2023/08/22 10:56:17;;;;;;;5.47;3.40;;;;;;;;;;5125148;28;20200;-84
2023/08/22 10:58:43;;;;;;;5.63;3.20;;;;;;;;;;5138611;28;20182;-86
2023/08/22 11:01:14;;;;;;;7.23;3.27;;;;;;;;;;5136195;28;20180;-84
2023/08/22 11:03:40;;;;;;;5.70;3.40;;;;;;;;;;5115336;28;20609;-85
2023/08/22 11:06:13;;;;;;;6.43;3.33;;;;;;;;;;5112023;28;20536;-85
2023/08/22 11:08:40;;;;;;;3.43;3.00;;;;;;;;;;5127532;28;20230;-86
2023/08/22 11:11:07;;;;;;;4.57;3.10;;;;;;;;;;5137414;28;20180;-85
2023/08/22 11:13:37;;;;;;;7.97;3.50;;;;;;;;;;5133827;28;20226;-84
2023/08/22 11:16:04;;;;;;;5.80;3.20;;;;;;;;;;5114000;28;20193;-83
2023/08/22 11:18:31;;;;;;;4.73;2.97;;;;;;;;;;5131981;28;20408;-84
2023/08/22 11:20:58;;;;;;;4.70;3.03;;;;;;;;;;5136146;28;20224;-86
2023/08/22 11:23:33;;;;;;;4.13;2.90;;;;;;;;;;5125682;28;20665;-86
2023/08/22 11:26:07;;;;;;;4.70;2.70;;;;;;;;;;5114011;28;20200;-86
2023/08/22 11:28:33;;;;;;;4.27;3.17;;;;;;;;;;5119716;28;20221;-84
2023/08/22 11:31:00;;;;;;;4.70;3.00;;;;;;;;;;5118756;28;20191;-85
2023/08/22 11:33:47;;;;;;;5.07;3.00;;;;;;;;;;5113130;28;20184;-88
2023/08/22 11:36:15;;;;;;;5.07;3.67;;;;;;;;;;5121782;28;20180;-83
2023/08/22 11:38:42;;;;;;;4.43;3.37;;;;;;;;;;5117788;28;20273;-84
2023/08/22 11:41:09;;;;;;;7.53;3.33;;;;;;;;;;5104347;28;20408;-84
2023/08/22 11:43:35;;;;;;;4.90;3.07;;;;;;;;;;5101669;28;20190;-84
2023/08/22 11:46:05;;;;;;;5.43;3.97;;;;;;;;;;5102361;28;20191;-82
2023/08/22 11:48:31;;;;;;;5.40;3.50;;;;;;;;;;5097473;28;20267;-82
2023/08/22 11:50:57;;;;;;;5.10;3.03;;;;;;;;;;5084032;28;20171;-83
2023/08/22 11:53:28;;;;;;;3.67;2.77;;;;;;;;;;5100174;28;20171;-81
2023/08/22 11:55:55;;;;;;;3.40;2.90;;;;;;;;;;5097532;28;20186;-81
2023/08/22 11:58:21;;;;;;;4.70;2.70;;;;;;;;;;5097480;28;20193;-81
2023/08/22 12:00:47;;;;;;;4.47;2.63;;;;;;;;;;5099599;28;20205;-81
2023/08/22 12:03:14;;;;;;;7.13;3.60;;;;;;;;;;5084728;28;20183;-79
2023/08/22 12:05:41;;;;;;;4.60;2.80;;;;;;;;;;5078083;28;20278;-81
2023/08/22 12:08:07;;;;;;;4.00;2.47;;;;;;;;;;5100192;28;20210;-81
2023/08/22 12:10:40;;;;;;;6.80;3.53;;;;;;;;;;5107312;28;20191;-85
2023/08/22 12:13:06;;;;;;;4.47;3.17;;;;;;;;;;5106392;28;20187;-82
2023/08/22 12:15:33;;;;;;;3.90;2.90;;;;;;;;;;5103852;28;20194;-86
2023/08/22 12:17:59;;;;;;;7.47;3.13;;;;;;;;;;5099832;28;20177;-84
2023/08/22 12:20:25;;;;;;;6.77;3.17;;;;;;;;;;5088966;28;20179;-84
2023/08/22 12:22:51;;;;;;;3.87;2.73;;;;;;;;;;5113050;28;20174;-85
2023/08/22 12:25:17;;;;;;;5.23;3.73;;;;;;;;;;5105107;28;20277;-86
2023/08/22 12:27:43;;;;;;;5.23;3.43;;;;;;;;;;5103354;28;20204;-84
2023/08/22 12:30:10;;;;;;;5.93;3.70;;;;;;;;;;5108666;28;20594;-86
2023/08/22 12:32:36;;;;;;;4.17;3.57;;;;;;;;;;5089062;28;20190;-86
2023/08/22 12:35:03;;;;;;;6.47;3.20;;;;;;;;;;5103403;28;20163;-84
2023/08/22 12:37:29;;;;;;;3.73;3.13;;;;;;;;;;5112038;28;20180;-83
2023/08/22 12:39:55;;;;;;;6.70;3.30;;;;;;;;;;5104467;28;20180;-84
2023/08/22 12:42:21;;;;;;;6.07;3.92;;;;;;;;;;5095851;28;20465;-87
2023/08/22 12:44:47;;;;;;;9.73;4.27;;;;;;;;;;5079018;28;20180;-86
2023/08/22 12:47:13;;;;;;;4.40;4.00;;;;;;;;;;5079226;28;20233;-86
2023/08/22 12:49:39;;;;;;;5.67;4.10;;;;;;;;;;5097518;28;20587;-88
2023/08/22 12:52:05;;;;;;;7.67;3.93;;;;;;;;;;5105926;28;20247;-86
2023/08/22 12:54:31;;;;;;;4.93;3.95;;;;;;;;;;5102811;28;20172;-86
2023/08/22 12:56:57;;;;;;;4.00;3.63;;;;;;;;;;5097764;28;20184;-88
2023/08/22 12:59:25;;;;;;;4.80;3.70;;;;;;;;;;5102961;28;20627;-86
2023/08/22 13:01:51;;;;;;;5.22;3.13;;;;;;;;;;5095020;28;20188;-86
2023/08/22 13:04:17;;;;;;;4.72;3.00;;;;;;;;;;5098259;28;20213;-86
2023/08/22 13:06:44;;;;;;;9.00;4.00;;;;;;;;;;5074834;28;20181;-85
2023/08/22 13:09:10;;;;;;;3.70;3.40;;;;;;;;;;5072695;28;20218;-86
2023/08/22 13:11:39;;;;;;;6.57;3.75;;;;;;;;;;5101111;28;20184;-85
2023/08/22 13:14:07;;;;;;;4.13;3.13;;;;;;;;;;5098721;28;20180;-87
2023/08/22 13:16:33;;;;;;;4.68;3.42;;;;;;;;;;5093692;28;20687;-86
2023/08/22 13:18:59;;;;;;;4.22;2.83;;;;;;;;;;5100806;28;20274;-86
2023/08/22 13:21:25;;;;;;;3.97;3.58;;;;;;;;;;5099939;28;20180;-87
2023/08/22 13:23:51;;;;;;;5.30;3.58;;;;;;;;;;5098822;28;20180;-86
2023/08/22 13:26:17;;;;;;;8.93;3.87;;;;;;;;;;5094998;28;20192;-88
2023/08/22 13:28:44;;;;;;;4.40;2.80;;;;;;;;;;5076790;28;20264;-86
2023/08/22 13:31:11;;;;;;;5.50;3.38;;;;;;;;;;5088541;28;20169;-86
2023/08/22 13:33:37;;;;;;;4.38;3.75;;;;;;;;;;5092977;28;20787;-87
2023/08/22 13:36:03;;;;;;;5.25;3.50;;;;;;;;;;5097703;28;20193;-87
2023/08/22 13:38:29;;;;;;;3.80;3.50;;;;;;;;;;5094862;28;20184;-86
2023/08/22 13:40:55;;;;;;;5.15;3.53;;;;;;;;;;5093773;28;20700;-85
2023/08/22 13:43:21;;;;;;;7.20;3.45;;;;;;;;;;5099667;28;20183;-86
2023/08/22 13:45:47;;;;;;;3.70;3.40;;;;;;;;;;5100473;28;20223;-86
2023/08/22 13:48:13;;;;;;;6.45;4.15;;;;;;;;;;5094636;28;20639;-87
2023/08/22 13:50:39;;;;;;;4.70;3.85;;;;;;;;;;5090755;28;20179;-86
2023/08/22 13:53:05;;;;;;;6.82;3.33;;;;;;;;;;5100039;28;20169;-88
2023/08/22 13:55:31;;;;;;;6.47;4.00;;;;;;;;;;5098496;28;20638;-87
2023/08/22 13:57:57;;;;;;;6.53;3.75;;;;;;;;;;5091905;28;20198;-89
2023/08/22 14:00:25;;;;;;;6.10;3.85;;;;;;;;;;5092698;28;20184;-86
2023/08/22 14:02:51;;;;;;;4.85;3.03;;;;;;;;;;5102150;28;20180;-88
2023/08/22 14:05:17;;;;;;;5.53;3.83;;;;;;;;;;5083760;28;20204;-87
2023/08/22 14:07:43;;;;;;;5.80;3.38;;;;;;;;;;5095286;28;20858;-86
2023/08/22 14:10:09;;;;;;;10.10;4.93;;;;;;;;;;5097875;28;20330;-87
2023/08/22 14:12:36;;;;;;;7.07;3.28;;;;;;;;;;5076696;28;20169;-87
2023/08/22 14:15:02;;;;;;;5.90;3.88;;;;;;;;;;5091264;28;20500;-87
2023/08/22 14:17:29;;;;;;;4.68;3.45;;;;;;;;;;5097696;28;20184;-87
2023/08/22 14:19:55;;;;;;;3.90;3.60;;;;;;;;;;5100501;28;20179;-87
2023/08/22 14:22:21;;;;;;;5.50;4.57;;;;;;;;;;5100318;28;20176;-87
2023/08/22 14:24:47;;;;;;;7.70;4.50;;;;;;;;;;5093771;28;20172;-83
2023/08/22 14:27:13;;;;;;;5.00;3.70;;;;;;;;;;5096432;28;20190;-89
2023/08/22 14:29:39;;;;;;;6.73;3.80;;;;;;;;;;5083230;28;20686;-88
2023/08/22 14:32:05;;;;;;;7.93;3.93;;;;;;;;;;5100859;28;20170;-88
2023/08/22 14:34:31;;;;;;;7.80;3.80;;;;;;;;;;5095621;28;20175;-87
2023/08/22 14:36:57;;;;;;;4.70;3.83;;;;;;;;;;5089671;28;20174;-89
2023/08/22 14:39:24;;;;;;;5.13;3.90;;;;;;;;;;5095367;28;20187;-86
2023/08/22 14:41:50;;;;;;;7.83;4.33;;;;;;;;;;5095900;28;20654;-87
2023/08/22 14:44:16;;;;;;;8.80;3.77;;;;;;;;;;5094289;28;20247;-84
2023/08/22 14:46:42;;;;;;;4.10;3.67;;;;;;;;;;5090594;28;20214;-84
2023/08/22 14:49:08;;;;;;;6.43;3.67;;;;;;;;;;5097820;28;20204;-87
2023/08/22 14:51:34;;;;;;;5.87;3.77;;;;;;;;;;5087508;28;20192;-88
2023/08/22 14:54:00;;;;;;;4.97;3.70;;;;;;;;;;5088251;28;20546;-86
2023/08/22 14:56:26;;;;;;;4.93;3.63;;;;;;;;;;5092044;28;20176;-87
2023/08/22 14:58:52;;;;;;;5.43;3.60;;;;;;;;;;5062262;28;20188;-87
2023/08/22 15:01:18;;;;;;;3.97;3.58;;;;;;;;;;5089667;28;20191;-85
2023/08/22 15:03:44;;;;;;;5.07;3.97;;;;;;;;;;5090076;28;20173;-81
2023/08/22 15:06:10;;;;;;;6.13;4.10;;;;;;;;;;5098635;28;20180;-85
2023/08/22 15:08:36;;;;;;;4.57;3.63;;;;;;;;;;5095741;28;20567;-83
2023/08/22 15:11:03;;;;;;;5.00;3.78;;;;;;;;;;5094582;28;20248;-81
2023/08/22 15:13:29;;;;;;;4.47;4.07;;;;;;;;;;5090493;28;20184;-81
2023/08/22 15:15:56;;;;;;;3.53;3.20;;;;;;;;;;5100721;28;20263;-86
2023/08/22 15:18:22;;;;;;;5.50;3.80;;;;;;;;;;5097850;28;20711;-83
2023/08/22 15:20:50;;;;;;;5.30;3.37;;;;;;;;;;5099133;28;20180;-81
2023/08/22 15:23:16;;;;;;;6.07;3.55;;;;;;;;;;5092526;28;21100;-81
2023/08/22 15:25:42;;;;;;;4.47;3.63;;;;;;;;;;5098920;28;20176;-79
2023/08/22 15:28:08;;;;;;;4.63;3.20;;;;;;;;;;5098158;28;20207;-84
2023/08/22 15:30:34;;;;;;;3.17;2.97;;;;;;;;;;5081492;28;20284;-83
2023/08/22 15:33:00;;;;;;;3.72;3.28;;;;;;;;;;5098022;28;20176;-81
2023/08/22 15:35:26;;;;;;;7.15;3.30;;;;;;;;;;5100263;28;20199;-82
2023/08/22 15:37:55;;;;;;;5.05;3.15;;;;;;;;;;5091303;28;20643;-85
2023/08/22 15:40:21;;;;;;;6.88;3.20;;;;;;;;;;5083819;28;20208;-80
2023/08/22 15:42:47;;;;;;;8.45;3.20;;;;;;;;;;5091780;28;20169;-83
2023/08/22 15:45:13;;;;;;;5.07;3.08;;;;;;;;;;5082959;28;20207;-84
2023/08/22 15:47:39;;;;;;;4.03;3.63;;;;;;;;;;5096104;28;20163;-86
2023/08/22 15:50:09;;;;;;;3.35;2.90;;;;;;;;;;5096732;28;20203;-84
2023/08/22 15:52:35;;;;;;;5.73;3.73;;;;;;;;;;5092666;28;20208;-85
2023/08/22 15:55:01;;;;;;;5.50;3.13;;;;;;;;;;5091895;28;20197;-86